Caroga, New York
Current Conditions -  °F | °C
As of 10:55 AM on Sunday 21 Dec 2014 (Local Time) from KNY0 Reporting Station
Overcast Overcast  
Wind Chill: 26°   Ceiling: 2200
Heat Index: 26°   Visibility: 10mi
Dew Point: 21°   Wind: 0mph
Humidity: 83%   Direction: NA
Pressure: 30.32"   Gusts: NA
Location:  43.2783°N, 74.5481°W
Report Text: KNY0 211555Z AUTO 00000KT 10SM OVC022 M04/M06 A3032 RMK AO2 T10361061
Loading
Personal Weather Stations






























Interactive Weather Map New forecast layout! Learn more

10-Day Weather Forecast

Advertisements
Track Severe Weather on mobile